Time;durP1;ratioP1;P1;durP2;ratioP2;P2;SDS_P1;SDS_P2;PMS_P1;PMS_P2;Temp;Humidity;BMP_temperature;BMP_pressure;BME280_temperature;BME280_humidity;BME280_pressure;Samples;Min_cycle;Max_cycle;Signal;HPM_P1;HPM_P2
2022/08/09 00:02:33;;;;;;;6.20;4.03;;;18.30;99.90;;;;;;5110194;28;20203;-51
2022/08/09 00:05:02;;;;;;;5.72;3.78;;;18.30;99.90;;;;;;5110365;28;20256;-52
2022/08/09 00:07:51;;;;;;;5.82;3.80;;;18.20;99.90;;;;;;5110250;28;20728;-51
2022/08/09 00:10:21;;;;;;;5.82;3.92;;;18.20;99.90;;;;;;5109613;28;20231;-51
2022/08/09 00:12:51;;;;;;;4.68;4.28;;;18.10;99.90;;;;;;5110322;28;20234;-51
2022/08/09 00:15:21;;;;;;;4.35;3.70;;;18.20;99.90;;;;;;5110395;28;20252;-51
2022/08/09 00:18:02;;;;;;;5.97;4.20;;;18.10;99.90;;;;;;5110495;28;20268;-51
2022/08/09 00:20:38;;;;;;;4.63;4.00;;;18.10;99.90;;;;;;5101386;28;20232;-51
2022/08/09 00:23:18;;;;;;;5.60;4.25;;;18.00;99.90;;;;;;5109984;28;20211;-51
2022/08/09 00:26:06;;;;;;;6.25;4.50;;;18.00;99.90;;;;;;5110025;28;20286;-51
2022/08/09 00:28:35;;;;;;;4.88;4.32;;;18.00;99.90;;;;;;5098601;28;20208;-50
2022/08/09 00:31:04;;;;;;;6.53;4.75;;;17.90;99.90;;;;;;5107604;28;20318;-51
2022/08/09 00:33:54;;;;;;;5.95;4.80;;;17.90;99.90;;;;;;5109512;28;20298;-51
2022/08/09 00:36:23;;;;;;;5.22;4.28;;;17.80;99.90;;;;;;5109922;28;20207;-51
2022/08/09 00:38:59;;;;;;;6.95;4.50;;;17.80;99.90;;;;;;5109312;28;20222;-51
2022/08/09 00:41:27;;;;;;;7.38;4.60;;;17.70;99.90;;;;;;5110058;28;20249;-51
2022/08/09 00:44:15;;;;;;;6.10;4.68;;;17.70;99.90;;;;;;5109755;28;20245;-51
2022/08/09 00:46:54;;;;;;;4.90;4.00;;;17.70;99.90;;;;;;5109960;28;20237;-52
2022/08/09 00:49:33;;;;;;;6.47;4.00;;;17.70;99.90;;;;;;5109214;28;20240;-52
2022/08/09 00:52:05;;;;;;;5.90;4.20;;;17.60;99.90;;;;;;5109915;28;20218;-51
2022/08/09 00:54:47;;;;;;;5.28;4.25;;;17.60;99.90;;;;;;5106524;28;20204;-52
2022/08/09 00:57:16;;;;;;;8.35;4.50;;;17.60;99.90;;;;;;5101042;28;20207;-52
2022/08/09 01:00:01;;;;;;;6.10;4.40;;;17.60;99.90;;;;;;5109583;28;20221;-52
2022/08/09 01:02:32;;;;;;;6.10;4.32;;;17.60;99.90;;;;;;5109742;28;20234;-52
2022/08/09 01:05:06;;;;;;;5.88;4.35;;;17.60;99.90;;;;;;5112016;28;20199;-52
2022/08/09 01:07:50;;;;;;;5.63;4.60;;;17.50;99.90;;;;;;5113681;28;20207;-51
2022/08/09 01:10:34;;;;;;;6.55;4.60;;;17.50;99.90;;;;;;5113759;28;20259;-51
2022/08/09 01:13:12;;;;;;;5.38;4.88;;;17.50;99.90;;;;;;5113674;28;20210;-52
2022/08/09 01:15:46;;;;;;;5.18;4.40;;;17.40;99.90;;;;;;5112902;28;20252;-51
2022/08/09 01:18:26;;;;;;;5.00;4.47;;;17.40;99.90;;;;;;5111087;28;20605;-52
2022/08/09 01:21:09;;;;;;;5.05;4.53;;;17.40;99.90;;;;;;5112309;28;20255;-52
2022/08/09 01:23:48;;;;;;;5.30;4.25;;;17.30;99.90;;;;;;5103954;28;20213;-52
2022/08/09 01:26:54;;;;;;;5.57;4.35;;;17.30;99.90;;;;;;5113672;28;20211;-52
2022/08/09 01:29:29;;;;;;;5.28;4.72;;;17.30;99.90;;;;;;5111061;28;20227;-52
2022/08/09 01:32:19;;;;;;;6.82;4.78;;;17.20;99.90;;;;;;5110108;28;20296;-52
2022/08/09 01:35:14;;;;;;;8.00;4.88;;;17.20;99.90;;;;;;5100966;28;20295;-52
2022/08/09 01:38:07;;;;;;;6.68;5.22;;;17.10;99.90;;;;;;5113596;28;20286;-52
2022/08/09 01:40:44;;;;;;;6.72;4.82;;;17.10;99.90;;;;;;5112858;28;20632;-52
2022/08/09 01:43:32;;;;;;;5.47;4.97;;;17.00;99.90;;;;;;5113606;28;20210;-52
2022/08/09 01:46:20;;;;;;;5.38;4.88;;;17.00;99.90;;;;;;5113152;28;20231;-52
2022/08/09 01:48:55;;;;;;;6.72;4.80;;;16.90;99.90;;;;;;5112438;28;20235;-52
2022/08/09 01:51:25;;;;;;;5.15;4.65;;;16.90;99.90;;;;;;5112369;28;20235;-52
2022/08/09 01:53:55;;;;;;;5.18;4.63;;;16.90;99.90;;;;;;5112937;28;20253;-51
2022/08/09 01:56:28;;;;;;;5.95;5.30;;;16.90;99.90;;;;;;5100359;28;20208;-52
2022/08/09 01:59:03;;;;;;;7.20;5.45;;;16.80;99.90;;;;;;5118306;28;20310;-51
2022/08/09 02:01:35;;;;;;;7.15;5.00;;;16.80;99.90;;;;;;5120050;28;20252;-51
2022/08/09 02:04:24;;;;;;;7.85;4.72;;;16.80;99.90;;;;;;5113414;28;20274;-51
2022/08/09 02:07:08;;;;;;;5.43;4.82;;;16.80;99.90;;;;;;5110783;28;20206;-51
2022/08/09 02:09:50;;;;;;;8.73;5.10;;;16.70;99.90;;;;;;5110601;28;20223;-51
2022/08/09 02:12:30;;;;;;;7.28;5.60;;;16.70;99.90;;;;;;5111661;28;20293;-52
2022/08/09 02:15:01;;;;;;;7.43;5.00;;;16.70;99.90;;;;;;5111046;28;20208;-51
2022/08/09 02:17:33;;;;;;;5.32;4.82;;;16.70;99.90;;;;;;5111279;28;20810;-51
2022/08/09 02:20:22;;;;;;;7.90;5.00;;;16.60;99.90;;;;;;5098801;28;20760;-52
2022/08/09 02:23:07;;;;;;;6.88;5.03;;;16.60;99.90;;;;;;5111376;28;20211;-52
2022/08/09 02:25:39;;;;;;;8.43;4.97;;;16.60;99.90;;;;;;5110968;28;20209;-51
2022/08/09 02:28:21;;;;;;;5.40;4.65;;;16.50;99.90;;;;;;5105484;28;20200;-51
2022/08/09 02:30:58;;;;;;;9.32;5.25;;;16.50;99.90;;;;;;5110862;28;20663;-51
2022/08/09 02:33:30;;;;;;;5.85;5.25;;;16.40;99.90;;;;;;5100102;28;20204;-51
2022/08/09 02:36:22;;;;;;;7.05;5.45;;;16.40;99.90;;;;;;5111013;28;20303;-51
2022/08/09 02:38:55;;;;;;;7.70;5.40;;;16.40;99.90;;;;;;5110638;28;20203;-51
2022/08/09 02:41:28;;;;;;;7.30;5.45;;;16.40;99.90;;;;;;5111015;28;20200;-51
2022/08/09 02:44:02;;;;;;;6.00;4.95;;;16.30;99.90;;;;;;5111063;28;20260;-51
2022/08/09 02:46:45;;;;;;;6.05;5.45;;;16.30;99.90;;;;;;5110659;28;20235;-51
2022/08/09 02:49:19;;;;;;;10.75;5.30;;;16.30;99.90;;;;;;5110166;28;20231;-51
2022/08/09 02:52:07;;;;;;;8.88;5.57;;;16.30;99.90;;;;;;5109434;28;20231;-52
2022/08/09 02:54:37;;;;;;;7.82;5.30;;;16.30;99.90;;;;;;5105993;28;20231;-51
2022/08/09 02:57:23;;;;;;;8.54;5.48;;;16.30;99.90;;;;;;5083645;28;1099666;-49
2022/08/09 02:59:54;;;;;;;7.95;5.70;;;16.30;99.90;;;;;;5111359;28;20276;-52
2022/08/09 03:02:48;;;;;;;5.75;5.15;;;16.30;99.90;;;;;;5111088;28;20295;-51
2022/08/09 03:05:28;;;;;;;5.97;4.88;;;16.30;99.90;;;;;;5111749;28;20260;-52
2022/08/09 03:08:02;;;;;;;7.03;5.25;;;16.20;99.90;;;;;;5098209;28;20207;-51
2022/08/09 03:10:32;;;;;;;10.77;5.25;;;16.20;99.90;;;;;;5100898;28;20268;-52
2022/08/09 03:13:01;;;;;;;7.32;5.80;;;16.20;99.90;;;;;;5111616;28;20200;-51
2022/08/09 03:15:36;;;;;;;7.88;5.65;;;16.20;99.90;;;;;;5111541;28;20624;-51
2022/08/09 03:18:26;;;;;;;6.90;5.38;;;16.20;99.90;;;;;;5108806;28;20246;-52
2022/08/09 03:21:00;;;;;;;7.03;5.78;;;16.20;99.90;;;;;;5106202;28;20223;-51
2022/08/09 03:23:28;;;;;;;5.97;5.03;;;16.10;99.90;;;;;;5110649;28;20257;-51
2022/08/09 03:25:59;;;;;;;9.38;6.15;;;16.10;99.90;;;;;;5110214;28;20233;-51
2022/08/09 03:28:33;;;;;;;8.27;6.00;;;16.10;99.90;;;;;;5108016;28;20207;-52
2022/08/09 03:31:02;;;;;;;6.28;5.68;;;16.10;99.90;;;;;;5110452;28;20253;-51
2022/08/09 03:33:39;;;;;;;8.55;5.43;;;16.10;99.90;;;;;;5103339;28;20664;-52
2022/08/09 03:36:23;;;;;;;5.43;4.93;;;16.00;99.90;;;;;;5111117;28;20230;-51
2022/08/09 03:38:56;;;;;;;7.85;5.82;;;15.90;99.90;;;;;;5110730;28;20238;-52
2022/08/09 03:41:24;;;;;;;6.47;5.30;;;15.90;99.90;;;;;;5111331;28;20231;-52
2022/08/09 03:44:12;;;;;;;6.95;5.30;;;15.90;99.90;;;;;;5087212;28;20250;-50
2022/08/09 03:46:43;;;;;;;6.95;4.90;;;15.80;99.90;;;;;;5113278;28;20302;-51
2022/08/09 03:49:16;;;;;;;7.03;4.97;;;15.80;99.90;;;;;;5110713;28;20704;-51
2022/08/09 03:51:51;;;;;;;5.43;4.88;;;15.80;99.90;;;;;;5111792;28;20226;-51
2022/08/09 03:54:31;;;;;;;7.60;4.60;;;15.70;99.90;;;;;;5108004;28;20221;-51
2022/08/09 03:57:03;;;;;;;7.57;5.22;;;15.80;99.90;;;;;;5105806;28;20553;-51
2022/08/09 03:59:48;;;;;;;7.45;5.80;;;15.70;99.90;;;;;;5109685;28;20234;-51
2022/08/09 04:02:24;;;;;;;7.30;5.78;;;15.60;99.90;;;;;;5110582;28;20207;-51
2022/08/09 04:04:59;;;;;;;6.53;5.78;;;15.60;99.90;;;;;;5110607;28;20211;-51
2022/08/09 04:07:34;;;;;;;6.20;5.32;;;15.50;99.90;;;;;;5110682;28;20580;-51
2022/08/09 04:10:22;;;;;;;5.90;5.20;;;15.50;99.90;;;;;;5101669;28;20278;-51
2022/08/09 04:12:59;;;;;;;6.97;5.22;;;15.50;99.90;;;;;;5110062;28;20752;-52
2022/08/09 04:15:31;;;;;;;7.97;5.43;;;15.50;99.90;;;;;;5110933;28;20208;-52
2022/08/09 04:18:19;;;;;;;7.57;5.32;;;15.50;99.90;;;;;;5108185;28;20633;-51
2022/08/09 04:20:50;;;;;;;8.73;5.77;;;15.50;99.90;;;;;;5104394;28;20234;-51
2022/08/09 04:23:19;;;;;;;6.53;5.65;;;15.40;99.90;;;;;;5082736;28;20254;-51
2022/08/09 04:25:52;;;;;;;10.03;6.17;;;15.40;99.90;;;;;;5111008;28;20253;-51
2022/08/09 04:28:21;;;;;;;8.57;5.63;;;15.40;99.90;;;;;;5084726;28;20199;-52
2022/08/09 04:31:04;;;;;;;7.25;5.40;;;15.40;99.90;;;;;;5109682;28;20231;-52
2022/08/09 04:33:37;;;;;;;7.05;5.63;;;15.50;99.90;;;;;;5102214;28;20725;-51
2022/08/09 04:36:23;;;;;;;11.00;5.70;;;15.50;99.90;;;;;;5110463;28;20207;-51
2022/08/09 04:38:52;;;;;;;6.90;5.63;;;15.50;99.90;;;;;;5109638;28;20199;-51
2022/08/09 04:41:20;;;;;;;8.50;5.40;;;15.50;99.90;;;;;;5110990;28;20206;-51
2022/08/09 04:43:51;;;;;;;5.63;4.82;;;15.80;99.90;;;;;;5110309;28;20687;-51
2022/08/09 04:46:34;;;;;;;7.95;5.20;;;16.40;99.90;;;;;;5110675;28;20227;-51
2022/08/09 04:49:23;;;;;;;6.15;4.95;;;16.60;99.90;;;;;;5110131;28;20330;-51
2022/08/09 04:52:13;;;;;;;8.68;5.10;;;17.20;99.90;;;;;;5110036;28;20700;-50
2022/08/09 04:54:53;;;;;;;9.10;5.43;;;17.80;99.90;;;;;;5101561;28;20200;-51
2022/08/09 04:57:21;;;;;;;7.38;4.90;;;18.30;99.90;;;;;;5105582;28;20200;-52
2022/08/09 04:59:52;;;;;;;7.50;4.80;;;18.70;99.90;;;;;;5108605;28;20265;-52
2022/08/09 05:02:21;;;;;;;7.53;4.97;;;19.10;99.90;;;;;;5107790;28;20203;-52
2022/08/09 05:04:50;;;;;;;7.63;5.10;;;19.30;99.90;;;;;;5108688;28;20204;-51
2022/08/09 05:07:24;;;;;;;6.60;4.80;;;19.60;99.90;;;;;;5108272;28;20756;-51
2022/08/09 05:09:58;;;;;;;6.43;4.65;;;19.90;99.90;;;;;;5108205;28;20227;-51
2022/08/09 05:12:29;;;;;;;7.18;3.83;;;20.30;99.90;;;;;;5109539;28;20221;-51
2022/08/09 05:15:00;;;;;;;9.55;4.65;;;20.60;99.90;;;;;;5109822;28;20196;-51
2022/08/09 05:17:38;;;;;;;8.88;4.40;;;20.90;99.90;;;;;;5109063;28;20583;-51
2022/08/09 05:20:26;;;;;;;5.13;4.00;;;21.10;99.90;;;;;;5100925;28;20306;-52
2022/08/09 05:22:58;;;;;;;6.95;4.32;;;21.40;99.90;;;;;;5085596;28;20210;-52
2022/08/09 05:25:47;;;;;;;6.22;4.40;;;21.70;99.90;;;;;;5087024;28;20300;-52
2022/08/09 05:28:18;;;;;;;5.07;3.80;;;21.90;99.90;;;;;;5091727;28;20207;-52
2022/08/09 05:30:46;;;;;;;4.78;4.20;;;22.20;99.90;;;;;;5082656;28;20229;-51
2022/08/09 05:33:15;;;;;;;6.97;3.90;;;22.40;99.90;;;;;;5099564;28;20220;-52
2022/08/09 05:35:43;;;;;;;10.80;4.10;;;22.70;99.90;;;;;;5108930;28;20303;-52
2022/08/09 05:38:18;;;;;;;6.03;3.88;;;22.90;99.90;;;;;;5108648;28;20207;-52
2022/08/09 05:40:49;;;;;;;5.30;3.80;;;23.20;99.90;;;;;;5108634;28;20237;-52
2022/08/09 05:43:17;;;;;;;6.65;3.65;;;23.20;99.90;;;;;;5109124;28;20239;-52
2022/08/09 05:45:47;;;;;;;5.32;3.58;;;23.40;99.90;;;;;;5108741;28;20688;-52
2022/08/09 05:48:24;;;;;;;5.32;4.18;;;23.50;99.90;;;;;;5106729;28;20211;-53
2022/08/09 05:51:00;;;;;;;4.47;3.40;;;23.00;99.90;;;;;;5112290;28;20695;-53
2022/08/09 05:53:49;;;;;;;5.93;3.88;;;22.50;99.90;;;;;;5111999;28;20310;-52
2022/08/09 05:56:25;;;;;;;4.20;3.80;;;21.90;99.90;;;;;;5110273;28;20260;-52
2022/08/09 05:58:56;;;;;;;4.80;3.70;;;21.70;99.90;;;;;;5112142;28;20600;-52
2022/08/09 06:01:26;;;;;;;6.35;4.10;;;21.80;99.90;;;;;;5112522;28;20564;-52
2022/08/09 06:04:02;;;;;;;5.03;4.13;;;21.70;99.90;;;;;;5111916;28;20683;-52
2022/08/09 06:06:33;;;;;;;6.32;3.70;;;21.80;99.90;;;;;;5113220;28;20293;-52
2022/08/09 06:09:03;;;;;;;5.10;3.90;;;21.70;99.90;;;;;;5111924;28;20207;-52
2022/08/09 06:11:51;;;;;;;5.65;3.85;;;21.50;99.90;;;;;;5112431;28;20593;-51
2022/08/09 06:14:25;;;;;;;5.38;3.45;;;21.60;99.90;;;;;;5112119;28;20304;-52
2022/08/09 06:16:55;;;;;;;5.43;3.60;;;22.10;99.90;;;;;;5112507;28;20207;-51
2022/08/09 06:19:24;;;;;;;5.43;3.92;;;22.20;99.90;;;;;;5103053;28;20231;-52
2022/08/09 06:21:54;;;;;;;7.60;3.78;;;22.10;99.90;;;;;;5112239;28;20215;-52
2022/08/09 06:24:27;;;;;;;5.55;3.53;;;22.30;99.90;;;;;;5110362;28;20236;-52
2022/08/09 06:26:55;;;;;;;5.38;3.58;;;23.10;99.90;;;;;;5099534;28;20572;-51
2022/08/09 06:29:24;;;;;;;6.38;3.85;;;23.90;99.90;;;;;;5105105;28;20228;-52
2022/08/09 06:31:54;;;;;;;6.60;3.90;;;24.50;99.90;;;;;;5111885;28;20204;-52
2022/08/09 06:34:42;;;;;;;7.03;3.70;;;24.50;99.40;;;;;;5104864;28;20298;-52
2022/08/09 06:37:10;;;;;;;5.75;3.72;;;24.70;99.30;;;;;;5112142;28;20205;-52
2022/08/09 06:39:39;;;;;;;4.32;3.70;;;24.80;98.30;;;;;;5111687;28;20223;-52
2022/08/09 06:42:27;;;;;;;4.70;3.80;;;25.00;97.90;;;;;;5112195;28;20941;-52
2022/08/09 06:44:58;;;;;;;5.38;3.92;;;24.90;97.30;;;;;;5111563;28;20745;-52
2022/08/09 06:47:27;;;;;;;3.95;3.50;;;25.30;96.70;;;;;;5109982;28;20549;-52
2022/08/09 06:50:08;;;;;;;5.97;3.58;;;25.00;96.70;;;;;;5112077;28;20613;-52
2022/08/09 06:52:46;;;;;;;4.57;3.45;;;25.30;96.50;;;;;;5111903;28;20249;-52
2022/08/09 06:55:20;;;;;;;3.92;3.58;;;25.30;96.50;;;;;;5101567;28;20208;-52
2022/08/09 06:57:50;;;;;;;5.65;3.75;;;25.30;95.90;;;;;;5084868;28;20222;-52
2022/08/09 07:00:31;;;;;;;5.13;3.40;;;25.60;96.00;;;;;;5110718;28;20277;-52
2022/08/09 07:03:19;;;;;;;5.30;3.67;;;25.80;96.00;;;;;;5111116;28;20295;-52
2022/08/09 07:06:34;;;;;;;4.95;3.50;;;25.90;95.60;;;;;;5111083;28;20794;-52
2022/08/09 07:09:07;;;;;;;3.63;3.33;;;25.90;95.50;;;;;;5111136;28;20676;-53
2022/08/09 07:11:57;;;;;;;5.95;3.40;;;26.20;95.50;;;;;;5111415;28;20655;-52
2022/08/09 07:14:25;;;;;;;3.92;3.20;;;26.20;94.70;;;;;;5111294;28;20224;-53
2022/08/09 07:16:54;;;;;;;4.57;3.47;;;26.40;94.20;;;;;;5110912;28;20211;-53
2022/08/09 07:19:25;;;;;;;4.97;3.28;;;26.60;94.10;;;;;;5110003;28;20237;-53
2022/08/09 07:21:54;;;;;;;5.68;3.67;;;26.60;93.30;;;;;;5111017;28;20204;-52
2022/08/09 07:24:27;;;;;;;3.97;3.50;;;26.50;92.90;;;;;;5110772;28;20218;-53
2022/08/09 07:27:10;;;;;;;6.78;3.75;;;26.50;93.00;;;;;;5111178;28;20214;-53
2022/08/09 07:29:58;;;;;;;6.15;3.80;;;26.70;93.20;;;;;;5090742;28;20242;-52
2022/08/09 07:32:27;;;;;;;7.40;3.60;;;26.80;92.10;;;;;;5103015;28;20744;-52
2022/08/09 07:35:05;;;;;;;4.60;3.60;;;27.10;92.50;;;;;;5105924;28;20227;-52
2022/08/09 07:37:40;;;;;;;5.38;3.53;;;27.10;93.00;;;;;;5110530;28;20580;-52
2022/08/09 07:40:14;;;;;;;6.63;3.30;;;27.30;92.10;;;;;;5110539;28;20223;-52
2022/08/09 07:42:54;;;;;;;4.30;3.33;;;27.30;91.80;;;;;;5110974;28;20212;-52
2022/08/09 07:45:25;;;;;;;4.55;3.30;;;27.40;91.40;;;;;;5110518;28;20225;-52
2022/08/09 07:48:08;;;;;;;5.20;3.53;;;27.60;91.10;;;;;;5111168;28;20290;-52
2022/08/09 07:50:56;;;;;;;5.07;3.40;;;27.60;91.50;;;;;;5110884;28;20253;-52
2022/08/09 07:53:44;;;;;;;3.58;3.22;;;27.70;91.00;;;;;;5110899;28;20223;-50
2022/08/09 07:56:33;;;;;;;6.88;3.40;;;27.70;91.20;;;;;;5100306;28;20744;-53
2022/08/09 07:59:06;;;;;;;3.72;3.40;;;27.90;90.60;;;;;;5110297;28;20230;-52
2022/08/09 08:01:42;;;;;;;4.75;3.35;;;27.90;90.40;;;;;;5109718;28;20272;-52
2022/08/09 08:04:20;;;;;;;3.42;3.13;;;27.70;90.30;;;;;;5110348;28;20203;-52
2022/08/09 08:06:59;;;;;;;4.57;3.05;;;27.90;90.30;;;;;;5110223;28;20660;-52
2022/08/09 08:09:47;;;;;;;5.88;3.42;;;27.70;89.70;;;;;;5110133;28;20268;-52
2022/08/09 08:12:22;;;;;;;6.25;3.60;;;27.40;90.20;;;;;;5109922;28;20229;-52
2022/08/09 08:14:58;;;;;;;3.70;3.30;;;27.10;90.40;;;;;;5110124;28;20215;-52
2022/08/09 08:17:26;;;;;;;4.20;3.30;;;26.90;90.70;;;;;;5110234;28;20238;-52
2022/08/09 08:20:14;;;;;;;7.50;3.30;;;26.70;90.70;;;;;;5101436;28;20596;-52
2022/08/09 08:22:43;;;;;;;3.85;3.53;;;26.50;91.80;;;;;;5110276;28;20208;-52
2022/08/09 08:25:15;;;;;;;6.85;3.72;;;26.40;91.00;;;;;;5109707;28;20319;-52
2022/08/09 08:27:46;;;;;;;4.15;3.45;;;26.30;91.00;;;;;;5106898;28;20212;-52
2022/08/09 08:30:18;;;;;;;5.72;3.67;;;26.30;91.90;;;;;;5109597;28;20247;-52
2022/08/09 08:32:47;;;;;;;4.60;3.50;;;26.30;91.80;;;;;;5100472;28;20464;-52
2022/08/09 08:35:21;;;;;;;4.20;3.33;;;26.50;92.50;;;;;;5107575;28;20276;-52
2022/08/09 08:37:50;;;;;;;3.38;3.08;;;26.30;90.80;;;;;;5110158;28;20291;-52
2022/08/09 08:40:36;;;;;;;4.25;3.33;;;26.10;90.80;;;;;;5109819;28;20231;-52
2022/08/09 08:43:05;;;;;;;6.25;3.58;;;26.10;90.90;;;;;;5109405;28;20207;-52
2022/08/09 08:45:49;;;;;;;5.28;3.55;;;26.00;91.30;;;;;;5109831;28;20200;-52
2022/08/09 08:48:22;;;;;;;4.32;3.40;;;26.00;91.00;;;;;;5109782;28;20211;-51
2022/08/09 08:50:57;;;;;;;5.45;3.25;;;25.90;91.30;;;;;;5109826;28;20262;-52
2022/08/09 08:53:25;;;;;;;7.93;3.70;;;25.90;91.00;;;;;;5108981;28;20223;-52
2022/08/09 08:56:04;;;;;;;6.25;3.58;;;26.00;91.40;;;;;;5100242;28;20199;-52
2022/08/09 08:58:35;;;;;;;3.90;3.10;;;26.10;91.30;;;;;;5109763;28;20302;-52
2022/08/09 09:01:06;;;;;;;3.85;3.22;;;26.10;90.70;;;;;;5109799;28;21196;-52
2022/08/09 09:03:49;;;;;;;4.88;3.10;;;26.10;90.50;;;;;;5109194;28;20707;-53
2022/08/09 09:06:19;;;;;;;5.93;3.15;;;26.10;91.20;;;;;;5109545;28;20704;-52
2022/08/09 09:08:49;;;;;;;4.82;3.20;;;26.20;90.80;;;;;;5107802;28;20256;-52
2022/08/09 09:11:27;;;;;;;5.82;3.55;;;26.20;90.40;;;;;;5082576;28;20294;-52
2022/08/09 09:14:02;;;;;;;5.38;3.35;;;26.20;90.50;;;;;;5108502;28;20219;-52
2022/08/09 09:16:33;;;;;;;5.03;3.50;;;26.20;90.70;;;;;;5109367;28;20264;-53
2022/08/09 09:19:04;;;;;;;4.80;3.17;;;26.30;90.70;;;;;;5101694;28;20200;-52
2022/08/09 09:22:06;;;;;;;7.65;3.08;;;26.30;90.80;;;;;;5086910;28;20239;-52
2022/08/09 09:24:41;;;;;;;6.15;3.38;;;26.30;90.10;;;;;;5109808;28;20200;-52
2022/08/09 09:27:13;;;;;;;6.85;3.40;;;26.40;89.60;;;;;;5105102;28;20660;-53
2022/08/09 09:30:11;;;;;;;4.53;3.03;;;26.40;90.60;;;;;;5077503;28;20233;-52
2022/08/09 09:33:08;;;;;;;6.20;3.42;;;26.60;90.50;;;;;;5081415;28;20416;-52
2022/08/09 09:35:53;;;;;;;6.35;3.10;;;26.60;89.70;;;;;;5083169;28;20277;-52
2022/08/09 09:38:45;;;;;;;5.40;3.33;;;26.60;91.00;;;;;;5091826;28;20215;-52
2022/08/09 09:41:29;;;;;;;5.40;3.30;;;26.50;90.70;;;;;;5093032;28;20220;-52
2022/08/09 09:44:07;;;;;;;6.75;3.35;;;26.40;90.30;;;;;;5085132;28;20205;-51
2022/08/09 09:46:42;;;;;;;5.85;3.72;;;26.30;90.40;;;;;;5088824;28;20231;-50
2022/08/09 09:49:22;;;;;;;7.57;3.40;;;26.40;91.10;;;;;;5093833;28;20231;-50
2022/08/09 09:52:11;;;;;;;3.58;3.20;;;26.40;89.50;;;;;;5092277;28;20672;-51
2022/08/09 09:55:05;;;;;;;5.32;3.15;;;26.50;89.80;;;;;;5092540;28;20289;-50
2022/08/09 09:58:01;;;;;;;5.22;3.05;;;26.50;89.70;;;;;;5082629;28;20306;-51
2022/08/09 10:00:46;;;;;;;4.50;2.67;;;26.60;88.90;;;;;;5087764;28;20220;-50
2022/08/09 10:03:42;;;;;;;8.38;5.15;;;26.70;88.70;;;;;;5084731;28;20208;-52
2022/08/09 10:06:13;;;;;;;22.23;20.13;;;26.70;85.10;;;;;;5080048;28;20576;-52
2022/08/09 10:08:42;;;;;;;5.68;3.30;;;26.80;89.60;;;;;;5092079;28;20731;-52
2022/08/09 10:11:24;;;;;;;5.50;2.70;;;26.90;87.90;;;;;;5079788;28;20285;-52
2022/08/09 10:14:22;;;;;;;4.45;2.83;;;26.90;85.00;;;;;;5092544;28;20247;-52
2022/08/09 10:16:58;;;;;;;3.95;2.70;;;26.80;83.80;;;;;;5092089;28;20215;-52
2022/08/09 10:19:46;;;;;;;4.35;2.75;;;26.80;83.70;;;;;;5092130;28;20236;-52
2022/08/09 10:22:31;;;;;;;3.85;2.95;;;26.90;85.30;;;;;;5091348;28;20242;-52
2022/08/09 10:25:03;;;;;;;4.07;3.00;;;26.60;87.00;;;;;;5090523;28;20207;-52
2022/08/09 10:27:42;;;;;;;5.38;2.90;;;26.70;86.90;;;;;;5087658;28;20200;-52
2022/08/09 10:30:23;;;;;;;4.43;2.40;;;26.80;84.60;;;;;;5091835;28;20739;-52
2022/08/09 10:33:12;;;;;;;4.72;2.55;;;26.80;83.30;;;;;;5089769;28;20287;-51
2022/08/09 10:36:00;;;;;;;3.92;2.40;;;26.90;82.40;;;;;;5077508;28;20604;-52
2022/08/09 10:38:30;;;;;;;6.68;2.80;;;27.00;82.10;;;;;;5077166;28;20591;-52
2022/08/09 10:41:19;;;;;;;4.25;2.85;;;27.10;84.90;;;;;;5091573;28;20674;-52
2022/08/09 10:43:50;;;;;;;30.23;22.13;;;27.20;84.60;;;;;;5090994;28;20249;-52
2022/08/09 10:47:05;;;;;;;4.80;2.85;;;27.10;85.00;;;;;;5091486;28;20214;-52
2022/08/09 10:50:06;;;;;;;4.85;2.80;;;27.20;82.50;;;;;;5051959;28;20240;-51
2022/08/09 10:53:03;;;;;;;7.25;2.90;;;27.10;82.10;;;;;;5111888;28;20571;-52
2022/08/09 10:55:34;;;;;;;3.40;3.10;;;27.00;80.80;;;;;;5099564;28;20220;-52
2022/08/09 10:58:34;;;;;;;4.85;2.85;;;26.90;83.40;;;;;;5089993;28;20208;-53
2022/08/09 11:01:05;;;;;;;7.38;3.10;;;26.90;82.90;;;;;;5111290;28;20226;-51
2022/08/09 11:04:17;;;;;;;3.15;2.70;;;26.90;83.30;;;;;;5110541;28;20211;-51
2022/08/09 11:07:31;;;;;;;3.72;2.80;;;27.10;82.50;;;;;;5107497;28;20234;-52
2022/08/09 11:10:55;;;;;;;3.05;2.55;;;27.20;80.60;;;;;;5090754;28;20227;-51
2022/08/09 11:13:35;;;;;;;3.22;2.30;;;27.10;78.60;;;;;;5098902;28;20203;-52
2022/08/09 11:16:38;;;;;;;4.00;2.45;;;27.20;77.70;;;;;;5087105;28;20259;-52
2022/08/09 11:19:09;;;;;;;4.15;2.50;;;27.30;80.40;;;;;;5088599;28;20265;-52
2022/08/09 11:22:07;;;;;;;3.00;2.40;;;27.30;78.70;;;;;;5109793;28;20214;-52
2022/08/09 11:25:08;;;;;;;6.63;2.88;;;27.40;79.90;;;;;;5046918;28;20616;-51
2022/08/09 11:27:40;;;;;;;3.55;2.53;;;27.30;79.20;;;;;;5110239;28;20199;-52
2022/08/09 11:30:34;;;;;;;2.85;2.10;;;27.30;79.00;;;;;;5107153;28;20690;-52
2022/08/09 11:33:05;;;;;;;3.25;2.40;;;27.30;79.80;;;;;;5109207;28;20215;-51
2022/08/09 11:35:37;;;;;;;5.40;3.08;;;27.50;78.70;;;;;;5089679;28;20233;-51
2022/08/09 11:38:19;;;;;;;8.02;2.97;;;27.60;79.20;;;;;;5089030;28;20223;-51
2022/08/09 11:40:50;;;;;;;8.30;2.95;;;27.60;79.40;;;;;;5090318;28;20635;-51
2022/08/09 11:43:41;;;;;;;6.15;2.85;;;27.60;78.80;;;;;;5090248;28;20200;-52
2022/08/09 11:46:10;;;;;;;4.78;3.00;;;27.50;79.70;;;;;;5090057;28;20246;-52
2022/08/09 11:48:50;;;;;;;4.40;2.78;;;27.50;77.20;;;;;;5089456;28;20269;-52
2022/08/09 11:51:19;;;;;;;6.75;2.85;;;27.60;77.70;;;;;;5089473;28;20235;-52
2022/08/09 11:54:14;;;;;;;3.95;2.65;;;27.50;75.30;;;;;;5089909;28;20708;-52
2022/08/09 11:57:37;;;;;;;5.05;2.95;;;27.10;78.70;;;;;;5088934;28;20201;-52
2022/08/09 12:00:29;;;;;;;5.15;2.50;;;27.00;78.70;;;;;;5090081;28;20306;-52
2022/08/09 12:02:59;;;;;;;3.85;2.38;;;27.20;76.60;;;;;;5089910;28;20212;-52
2022/08/09 12:05:48;;;;;;;5.55;2.60;;;27.30;75.50;;;;;;5089744;28;20899;-52
2022/08/09 12:08:19;;;;;;;4.25;2.28;;;27.30;75.90;;;;;;5085146;28;20209;-52
2022/08/09 12:10:51;;;;;;;7.65;2.75;;;27.40;76.40;;;;;;5075836;28;20220;-52
2022/08/09 12:13:32;;;;;;;3.65;2.22;;;27.50;76.90;;;;;;5089666;28;20211;-52
2022/08/09 12:16:23;;;;;;;4.72;2.78;;;27.50;77.90;;;;;;5069588;28;20309;-52
2022/08/09 12:19:07;;;;;;;4.18;2.50;;;27.60;75.90;;;;;;5080322;28;20203;-52
2022/08/09 12:21:38;;;;;;;2.63;2.35;;;27.60;77.10;;;;;;5089312;28;20286;-52
2022/08/09 12:24:22;;;;;;;2.88;2.50;;;27.60;76.30;;;;;;5088624;28;20216;-52
2022/08/09 12:26:55;;;;;;;5.78;2.35;;;27.70;77.80;;;;;;5082228;28;20192;-51
2022/08/09 12:29:52;;;;;;;2.60;2.40;;;27.80;77.20;;;;;;5088561;28;20267;-51
2022/08/09 12:32:33;;;;;;;3.75;2.40;;;27.70;73.80;;;;;;5088622;28;20207;-51
2022/08/09 12:35:08;;;;;;;3.83;2.60;;;27.70;75.40;;;;;;5082421;28;20192;-54
2022/08/09 12:37:46;;;;;;;4.93;2.50;;;27.70;74.20;;;;;;5084036;28;20206;-53
2022/08/09 12:40:20;;;;;;;4.38;2.70;;;27.70;73.50;;;;;;5089515;28;20271;-52
2022/08/09 12:42:52;;;;;;;3.85;2.70;;;27.70;74.40;;;;;;5076723;28;20731;-51
2022/08/09 12:45:21;;;;;;;4.95;2.70;;;27.60;74.40;;;;;;5089301;28;20224;-51
2022/08/09 12:48:08;;;;;;;4.30;2.42;;;27.50;74.00;;;;;;5089001;28;20211;-52
2022/08/09 12:50:57;;;;;;;3.00;2.30;;;27.50;74.10;;;;;;5088168;28;20311;-52
2022/08/09 12:53:29;;;;;;;2.90;2.40;;;27.70;77.00;;;;;;5087715;28;20205;-52
2022/08/09 12:56:07;;;;;;;5.45;2.30;;;27.80;73.50;;;;;;5089102;28;20263;-52
2022/08/09 12:58:45;;;;;;;4.43;2.15;;;28.00;73.10;;;;;;5089533;28;20246;-51
2022/08/09 13:01:26;;;;;;;3.05;2.58;;;27.90;71.40;;;;;;5092640;28;20285;-51
2022/08/09 13:04:00;;;;;;;4.78;2.30;;;27.90;70.60;;;;;;5092990;28;20195;-52
2022/08/09 13:06:32;;;;;;;5.03;2.55;;;27.80;72.20;;;;;;5093408;28;20207;-53
2022/08/09 13:09:09;;;;;;;3.95;2.50;;;27.90;72.30;;;;;;5092094;28;20229;-52
2022/08/09 13:11:41;;;;;;;4.38;2.40;;;27.90;70.30;;;;;;5092665;28;20230;-52
2022/08/09 13:14:14;;;;;;;3.03;2.45;;;28.00;70.60;;;;;;5093098;28;20235;-51
2022/08/09 13:17:05;;;;;;;6.60;2.20;;;27.90;71.70;;;;;;5092593;28;20228;-52
2022/08/09 13:19:38;;;;;;;6.28;2.70;;;27.90;71.90;;;;;;5092504;28;20724;-52
2022/08/09 13:22:27;;;;;;;5.03;2.70;;;27.90;72.80;;;;;;5092337;28;20673;-51
2022/08/09 13:25:15;;;;;;;4.82;2.33;;;27.90;72.80;;;;;;5093042;28;20299;-52
2022/08/09 13:27:43;;;;;;;4.07;2.63;;;27.90;73.10;;;;;;5092711;28;20211;-52
2022/08/09 13:30:24;;;;;;;5.13;2.72;;;28.00;72.40;;;;;;5092560;28;20224;-52
2022/08/09 13:33:21;;;;;;;5.55;2.60;;;27.90;71.50;;;;;;5091775;28;20235;-51
2022/08/09 13:35:50;;;;;;;2.78;2.55;;;27.90;73.30;;;;;;5079745;28;20739;-51
2022/08/09 13:38:39;;;;;;;4.30;2.47;;;27.90;72.70;;;;;;5079485;28;20239;-51
2022/08/09 13:41:25;;;;;;;4.38;2.10;;;28.00;72.70;;;;;;5092717;28;20665;-52
2022/08/09 13:44:14;;;;;;;4.03;2.28;;;28.00;70.60;;;;;;5092565;28;20918;-52
2022/08/09 13:46:45;;;;;;;3.63;2.40;;;28.10;70.80;;;;;;5100269;28;20642;-52